sensor_id;sensor_type;location;lat;lon;timestamp;P1;durP1;ratioP1;P2;durP2;ratioP2
13973;SDS011;7060;43.770;4.008;2022-08-19T00:01:58;0.65;;;0.40;;
13973;SDS011;7060;43.770;4.008;2022-08-19T00:04:29;2.60;;;0.40;;
13973;SDS011;7060;43.770;4.008;2022-08-19T00:06:59;2.87;;;0.40;;
13973;SDS011;7060;43.770;4.008;2022-08-19T00:09:28;1.27;;;0.40;;
13973;SDS011;7060;43.770;4.008;2022-08-19T00:11:56;2.20;;;0.40;;
13973;SDS011;7060;43.770;4.008;2022-08-19T00:14:26;1.07;;;0.53;;
13973;SDS011;7060;43.770;4.008;2022-08-19T00:16:58;0.40;;;0.40;;
13973;SDS011;7060;43.770;4.008;2022-08-19T00:19:28;3.20;;;0.33;;
13973;SDS011;7060;43.770;4.008;2022-08-19T00:21:57;2.93;;;0.33;;
13973;SDS011;7060;43.770;4.008;2022-08-19T00:24:26;1.57;;;0.30;;
13973;SDS011;7060;43.770;4.008;2022-08-19T00:26:55;1.60;;;0.60;;
13973;SDS011;7060;43.770;4.008;2022-08-19T00:29:45;0.20;;;0.20;;
13973;SDS011;7060;43.770;4.008;2022-08-19T00:32:18;0.43;;;0.30;;
13973;SDS011;7060;43.770;4.008;2022-08-19T00:34:50;2.03;;;0.40;;
13973;SDS011;7060;43.770;4.008;2022-08-19T00:37:20;1.08;;;0.40;;
13973;SDS011;7060;43.770;4.008;2022-08-19T00:39:49;1.30;;;0.40;;
13973;SDS011;7060;43.770;4.008;2022-08-19T00:42:18;0.30;;;0.30;;
13973;SDS011;7060;43.770;4.008;2022-08-19T00:44:48;0.43;;;0.30;;
13973;SDS011;7060;43.770;4.008;2022-08-19T00:47:17;2.00;;;0.60;;
13973;SDS011;7060;43.770;4.008;2022-08-19T00:49:47;0.50;;;0.40;;
13973;SDS011;7060;43.770;4.008;2022-08-19T00:52:21;1.40;;;0.33;;
13973;SDS011;7060;43.770;4.008;2022-08-19T00:54:55;1.33;;;0.40;;
13973;SDS011;7060;43.770;4.008;2022-08-19T00:57:26;1.23;;;0.40;;
13973;SDS011;7060;43.770;4.008;2022-08-19T00:59:57;1.97;;;0.50;;
13973;SDS011;7060;43.770;4.008;2022-08-19T01:02:29;0.80;;;0.50;;
13973;SDS011;7060;43.770;4.008;2022-08-19T01:04:58;0.60;;;0.60;;
13973;SDS011;7060;43.770;4.008;2022-08-19T01:07:29;1.07;;;0.50;;
13973;SDS011;7060;43.770;4.008;2022-08-19T01:10:04;1.00;;;0.50;;
13973;SDS011;7060;43.770;4.008;2022-08-19T01:12:35;0.97;;;0.50;;
13973;SDS011;7060;43.770;4.008;2022-08-19T01:15:05;0.67;;;0.50;;
13973;SDS011;7060;43.770;4.008;2022-08-19T01:17:36;0.50;;;0.50;;
13973;SDS011;7060;43.770;4.008;2022-08-19T01:20:07;2.17;;;0.57;;
13973;SDS011;7060;43.770;4.008;2022-08-19T01:22:40;1.90;;;0.70;;
13973;SDS011;7060;43.770;4.008;2022-08-19T01:25:12;0.30;;;0.30;;
13973;SDS011;7060;43.770;4.008;2022-08-19T01:27:43;0.47;;;0.40;;
13973;SDS011;7060;43.770;4.008;2022-08-19T01:30:19;0.97;;;0.57;;
13973;SDS011;7060;43.770;4.008;2022-08-19T01:32:50;1.03;;;0.50;;
13973;SDS011;7060;43.770;4.008;2022-08-19T01:35:19;0.57;;;0.40;;
13973;SDS011;7060;43.770;4.008;2022-08-19T01:37:52;0.60;;;0.50;;
13973;SDS011;7060;43.770;4.008;2022-08-19T01:40:24;0.70;;;0.60;;
13973;SDS011;7060;43.770;4.008;2022-08-19T01:42:55;1.73;;;0.40;;
13973;SDS011;7060;43.770;4.008;2022-08-19T01:45:26;1.67;;;0.60;;
13973;SDS011;7060;43.770;4.008;2022-08-19T01:47:56;2.17;;;0.57;;
13973;SDS011;7060;43.770;4.008;2022-08-19T01:50:28;1.17;;;0.53;;
13973;SDS011;7060;43.770;4.008;2022-08-19T01:53:00;0.70;;;0.50;;
13973;SDS011;7060;43.770;4.008;2022-08-19T01:55:33;1.40;;;0.50;;
13973;SDS011;7060;43.770;4.008;2022-08-19T01:58:06;3.57;;;0.50;;
13973;SDS011;7060;43.770;4.008;2022-08-19T02:00:38;3.30;;;0.87;;
13973;SDS011;7060;43.770;4.008;2022-08-19T02:03:07;0.53;;;0.50;;
13973;SDS011;7060;43.770;4.008;2022-08-19T02:05:36;0.70;;;0.60;;
13973;SDS011;7060;43.770;4.008;2022-08-19T02:08:06;2.40;;;0.77;;
13973;SDS011;7060;43.770;4.008;2022-08-19T02:10:37;1.43;;;0.50;;
13973;SDS011;7060;43.770;4.008;2022-08-19T02:13:07;0.77;;;0.50;;
13973;SDS011;7060;43.770;4.008;2022-08-19T02:15:36;1.27;;;0.60;;
13973;SDS011;7060;43.770;4.008;2022-08-19T02:18:04;2.03;;;0.50;;
13973;SDS011;7060;43.770;4.008;2022-08-19T02:20:35;0.70;;;0.57;;
13973;SDS011;7060;43.770;4.008;2022-08-19T02:23:03;0.40;;;0.40;;
13973;SDS011;7060;43.770;4.008;2022-08-19T02:25:43;0.40;;;0.40;;
13973;SDS011;7060;43.770;4.008;2022-08-19T02:28:13;2.30;;;0.60;;
13973;SDS011;7060;43.770;4.008;2022-08-19T02:30:45;4.33;;;0.50;;
13973;SDS011;7060;43.770;4.008;2022-08-19T02:33:14;4.63;;;0.50;;
13973;SDS011;7060;43.770;4.008;2022-08-19T02:35:44;1.90;;;0.70;;
13973;SDS011;7060;43.770;4.008;2022-08-19T02:38:13;1.50;;;0.60;;
13973;SDS011;7060;43.770;4.008;2022-08-19T02:40:56;1.53;;;0.87;;
13973;SDS011;7060;43.770;4.008;2022-08-19T02:43:25;0.60;;;0.50;;
13973;SDS011;7060;43.770;4.008;2022-08-19T02:45:59;0.73;;;0.40;;
13973;SDS011;7060;43.770;4.008;2022-08-19T02:48:27;0.70;;;0.50;;
13973;SDS011;7060;43.770;4.008;2022-08-19T02:50:57;1.13;;;0.60;;
13973;SDS011;7060;43.770;4.008;2022-08-19T02:53:26;2.93;;;0.70;;
13973;SDS011;7060;43.770;4.008;2022-08-19T02:55:56;1.43;;;0.70;;
13973;SDS011;7060;43.770;4.008;2022-08-19T02:58:25;0.60;;;0.60;;
13973;SDS011;7060;43.770;4.008;2022-08-19T03:00:55;1.90;;;0.83;;
13973;SDS011;7060;43.770;4.008;2022-08-19T03:03:24;1.30;;;0.60;;
13973;SDS011;7060;43.770;4.008;2022-08-19T03:06:02;2.40;;;0.70;;
13973;SDS011;7060;43.770;4.008;2022-08-19T03:08:32;0.97;;;0.60;;
13973;SDS011;7060;43.770;4.008;2022-08-19T03:11:02;1.23;;;0.67;;
13973;SDS011;7060;43.770;4.008;2022-08-19T03:13:31;2.03;;;0.70;;
13973;SDS011;7060;43.770;4.008;2022-08-19T03:16:00;0.67;;;0.60;;
13973;SDS011;7060;43.770;4.008;2022-08-19T03:18:32;2.43;;;0.70;;
13973;SDS011;7060;43.770;4.008;2022-08-19T03:21:00;2.27;;;0.80;;
13973;SDS011;7060;43.770;4.008;2022-08-19T03:23:29;1.23;;;0.50;;
13973;SDS011;7060;43.770;4.008;2022-08-19T03:25:57;1.10;;;0.77;;
13973;SDS011;7060;43.770;4.008;2022-08-19T03:28:44;1.47;;;0.77;;
13973;SDS011;7060;43.770;4.008;2022-08-19T03:31:23;1.80;;;0.80;;
13973;SDS011;7060;43.770;4.008;2022-08-19T03:34:13;3.23;;;0.77;;
13973;SDS011;7060;43.770;4.008;2022-08-19T03:36:44;1.57;;;0.70;;
13973;SDS011;7060;43.770;4.008;2022-08-19T03:39:14;0.67;;;0.57;;
13973;SDS011;7060;43.770;4.008;2022-08-19T03:41:43;2.40;;;0.70;;
13973;SDS011;7060;43.770;4.008;2022-08-19T03:44:16;1.20;;;0.70;;
13973;SDS011;7060;43.770;4.008;2022-08-19T03:46:47;2.10;;;0.77;;
13973;SDS011;7060;43.770;4.008;2022-08-19T03:49:19;0.93;;;0.70;;
13973;SDS011;7060;43.770;4.008;2022-08-19T03:51:54;1.20;;;0.77;;
13973;SDS011;7060;43.770;4.008;2022-08-19T03:54:24;1.33;;;0.80;;
13973;SDS011;7060;43.770;4.008;2022-08-19T03:56:53;2.27;;;0.80;;
13973;SDS011;7060;43.770;4.008;2022-08-19T03:59:24;1.60;;;0.70;;
13973;SDS011;7060;43.770;4.008;2022-08-19T04:01:54;2.90;;;0.77;;
13973;SDS011;7060;43.770;4.008;2022-08-19T04:04:24;0.87;;;0.77;;
13973;SDS011;7060;43.770;4.008;2022-08-19T04:06:54;1.47;;;0.60;;
13973;SDS011;7060;43.770;4.008;2022-08-19T04:09:24;1.13;;;0.70;;
13973;SDS011;7060;43.770;4.008;2022-08-19T04:11:54;0.80;;;0.70;;
13973;SDS011;7060;43.770;4.008;2022-08-19T04:14:27;2.33;;;0.83;;
13973;SDS011;7060;43.770;4.008;2022-08-19T04:16:57;2.10;;;0.90;;
13973;SDS011;7060;43.770;4.008;2022-08-19T04:19:26;2.00;;;0.70;;
13973;SDS011;7060;43.770;4.008;2022-08-19T04:21:57;2.33;;;0.73;;
13973;SDS011;7060;43.770;4.008;2022-08-19T04:24:26;0.80;;;0.80;;
13973;SDS011;7060;43.770;4.008;2022-08-19T04:26:54;1.70;;;0.90;;
13973;SDS011;7060;43.770;4.008;2022-08-19T04:29:23;1.30;;;0.70;;
13973;SDS011;7060;43.770;4.008;2022-08-19T04:31:55;0.97;;;0.80;;
13973;SDS011;7060;43.770;4.008;2022-08-19T04:34:26;1.13;;;0.63;;
13973;SDS011;7060;43.770;4.008;2022-08-19T04:36:58;1.97;;;0.80;;
13973;SDS011;7060;43.770;4.008;2022-08-19T04:39:27;0.83;;;0.70;;
13973;SDS011;7060;43.770;4.008;2022-08-19T04:42:11;0.90;;;0.80;;
13973;SDS011;7060;43.770;4.008;2022-08-19T04:44:57;2.20;;;0.97;;
13973;SDS011;7060;43.770;4.008;2022-08-19T04:47:28;2.33;;;0.70;;
13973;SDS011;7060;43.770;4.008;2022-08-19T04:50:19;1.20;;;0.80;;
13973;SDS011;7060;43.770;4.008;2022-08-19T04:52:50;1.90;;;0.80;;
13973;SDS011;7060;43.770;4.008;2022-08-19T04:55:20;1.10;;;0.93;;
13973;SDS011;7060;43.770;4.008;2022-08-19T04:57:49;0.73;;;0.70;;
13973;SDS011;7060;43.770;4.008;2022-08-19T05:00:17;1.30;;;0.70;;
13973;SDS011;7060;43.770;4.008;2022-08-19T05:02:47;1.93;;;0.80;;
13973;SDS011;7060;43.770;4.008;2022-08-19T05:05:16;4.40;;;1.00;;
13973;SDS011;7060;43.770;4.008;2022-08-19T05:07:44;2.83;;;0.70;;
13973;SDS011;7060;43.770;4.008;2022-08-19T05:10:13;1.13;;;0.80;;
13973;SDS011;7060;43.770;4.008;2022-08-19T05:12:41;2.17;;;0.70;;
13973;SDS011;7060;43.770;4.008;2022-08-19T05:15:09;0.80;;;0.80;;
13973;SDS011;7060;43.770;4.008;2022-08-19T05:17:38;1.47;;;1.00;;
13973;SDS011;7060;43.770;4.008;2022-08-19T05:20:29;1.30;;;0.90;;
13973;SDS011;7060;43.770;4.008;2022-08-19T05:23:15;2.20;;;0.93;;
13973;SDS011;7060;43.770;4.008;2022-08-19T05:25:48;1.17;;;0.90;;
13973;SDS011;7060;43.770;4.008;2022-08-19T05:28:19;2.00;;;0.70;;
13973;SDS011;7060;43.770;4.008;2022-08-19T05:30:48;0.67;;;0.60;;
13973;SDS011;7060;43.770;4.008;2022-08-19T05:33:19;2.17;;;0.90;;
13973;SDS011;7060;43.770;4.008;2022-08-19T05:35:49;1.20;;;0.80;;
13973;SDS011;7060;43.770;4.008;2022-08-19T05:38:19;1.95;;;1.00;;
13973;SDS011;7060;43.770;4.008;2022-08-19T05:40:47;1.27;;;0.90;;
13973;SDS011;7060;43.770;4.008;2022-08-19T05:43:16;1.60;;;0.87;;
13973;SDS011;7060;43.770;4.008;2022-08-19T05:45:44;1.80;;;1.10;;
13973;SDS011;7060;43.770;4.008;2022-08-19T05:48:13;2.63;;;1.10;;
13973;SDS011;7060;43.770;4.008;2022-08-19T05:50:44;3.33;;;1.00;;
13973;SDS011;7060;43.770;4.008;2022-08-19T05:53:14;1.87;;;1.13;;
13973;SDS011;7060;43.770;4.008;2022-08-19T05:55:43;1.80;;;1.30;;
13973;SDS011;7060;43.770;4.008;2022-08-19T05:58:11;2.22;;;1.30;;
13973;SDS011;7060;43.770;4.008;2022-08-19T06:00:39;2.67;;;1.13;;
13973;SDS011;7060;43.770;4.008;2022-08-19T06:03:11;1.07;;;0.90;;
13973;SDS011;7060;43.770;4.008;2022-08-19T06:05:40;2.60;;;1.10;;
13973;SDS011;7060;43.770;4.008;2022-08-19T06:08:20;2.30;;;1.10;;
13973;SDS011;7060;43.770;4.008;2022-08-19T06:11:16;2.05;;;1.45;;
13973;SDS011;7060;43.770;4.008;2022-08-19T06:13:48;2.83;;;1.10;;
13973;SDS011;7060;43.770;4.008;2022-08-19T06:16:26;1.98;;;1.20;;
13973;SDS011;7060;43.770;4.008;2022-08-19T06:18:55;1.63;;;0.98;;
13973;SDS011;7060;43.770;4.008;2022-08-19T06:21:25;1.20;;;1.10;;
13973;SDS011;7060;43.770;4.008;2022-08-19T06:23:58;2.40;;;1.60;;
13973;SDS011;7060;43.770;4.008;2022-08-19T06:26:27;2.70;;;1.35;;
13973;SDS011;7060;43.770;4.008;2022-08-19T06:28:55;2.45;;;1.60;;
13973;SDS011;7060;43.770;4.008;2022-08-19T06:31:25;3.00;;;2.05;;
13973;SDS011;7060;43.770;4.008;2022-08-19T06:33:55;2.47;;;1.88;;
13973;SDS011;7060;43.770;4.008;2022-08-19T06:36:25;3.15;;;2.30;;
13973;SDS011;7060;43.770;4.008;2022-08-19T06:39:00;14.30;;;5.15;;
13973;SDS011;7060;43.770;4.008;2022-08-19T06:41:30;5.95;;;3.90;;
13973;SDS011;7060;43.770;4.008;2022-08-19T06:44:11;4.18;;;3.88;;
13973;SDS011;7060;43.770;4.008;2022-08-19T06:46:42;4.13;;;3.92;;
13973;SDS011;7060;43.770;4.008;2022-08-19T06:49:20;5.25;;;4.95;;
13973;SDS011;7060;43.770;4.008;2022-08-19T06:51:49;4.68;;;4.38;;
13973;SDS011;7060;43.770;4.008;2022-08-19T06:54:21;4.95;;;4.55;;
13973;SDS011;7060;43.770;4.008;2022-08-19T06:56:56;4.18;;;3.90;;
13973;SDS011;7060;43.770;4.008;2022-08-19T06:59:25;4.00;;;3.65;;
13973;SDS011;7060;43.770;4.008;2022-08-19T07:01:55;3.00;;;2.80;;
13973;SDS011;7060;43.770;4.008;2022-08-19T07:04:26;3.00;;;2.80;;
13973;SDS011;7060;43.770;4.008;2022-08-19T07:06:59;3.20;;;2.90;;
13973;SDS011;7060;43.770;4.008;2022-08-19T07:09:47;3.05;;;2.40;;
13973;SDS011;7060;43.770;4.008;2022-08-19T07:12:26;4.47;;;2.30;;
13973;SDS011;7060;43.770;4.008;2022-08-19T07:14:56;2.17;;;2.03;;
13973;SDS011;7060;43.770;4.008;2022-08-19T07:17:25;3.45;;;2.53;;
13973;SDS011;7060;43.770;4.008;2022-08-19T07:19:54;3.83;;;2.17;;
13973;SDS011;7060;43.770;4.008;2022-08-19T07:22:30;3.70;;;2.25;;
13973;SDS011;7060;43.770;4.008;2022-08-19T07:25:01;5.30;;;2.17;;
13973;SDS011;7060;43.770;4.008;2022-08-19T07:27:31;2.13;;;1.80;;
13973;SDS011;7060;43.770;4.008;2022-08-19T07:30:00;2.15;;;2.03;;
13973;SDS011;7060;43.770;4.008;2022-08-19T07:32:29;3.20;;;1.90;;
13973;SDS011;7060;43.770;4.008;2022-08-19T07:34:58;5.15;;;2.20;;
13973;SDS011;7060;43.770;4.008;2022-08-19T07:37:27;1.63;;;1.52;;
13973;SDS011;7060;43.770;4.008;2022-08-19T07:39:59;4.35;;;2.10;;
13973;SDS011;7060;43.770;4.008;2022-08-19T07:42:29;2.50;;;1.50;;
13973;SDS011;7060;43.770;4.008;2022-08-19T07:44:57;2.00;;;1.50;;
13973;SDS011;7060;43.770;4.008;2022-08-19T07:47:26;2.83;;;1.45;;
13973;SDS011;7060;43.770;4.008;2022-08-19T07:50:15;1.60;;;1.30;;
13973;SDS011;7060;43.770;4.008;2022-08-19T07:52:44;1.50;;;1.40;;
13973;SDS011;7060;43.770;4.008;2022-08-19T07:55:15;1.75;;;1.65;;
13973;SDS011;7060;43.770;4.008;2022-08-19T07:58:06;1.85;;;1.55;;
13973;SDS011;7060;43.770;4.008;2022-08-19T08:00:35;1.95;;;1.65;;
13973;SDS011;7060;43.770;4.008;2022-08-19T08:03:03;1.73;;;1.40;;
13973;SDS011;7060;43.770;4.008;2022-08-19T08:05:31;3.67;;;1.90;;
13973;SDS011;7060;43.770;4.008;2022-08-19T08:08:17;2.22;;;1.67;;
13973;SDS011;7060;43.770;4.008;2022-08-19T08:11:10;2.05;;;1.40;;
13973;SDS011;7060;43.770;4.008;2022-08-19T08:13:42;5.10;;;1.58;;
13973;SDS011;7060;43.770;4.008;2022-08-19T08:16:11;2.28;;;1.40;;
13973;SDS011;7060;43.770;4.008;2022-08-19T08:18:40;2.90;;;1.38;;
13973;SDS011;7060;43.770;4.008;2022-08-19T08:21:18;2.78;;;1.80;;
13973;SDS011;7060;43.770;4.008;2022-08-19T08:23:47;3.55;;;2.15;;
13973;SDS011;7060;43.770;4.008;2022-08-19T08:26:18;5.82;;;1.98;;
13973;SDS011;7060;43.770;4.008;2022-08-19T08:28:48;3.25;;;1.63;;
13973;SDS011;7060;43.770;4.008;2022-08-19T08:31:17;3.17;;;1.73;;
13973;SDS011;7060;43.770;4.008;2022-08-19T08:33:46;2.95;;;1.70;;
13973;SDS011;7060;43.770;4.008;2022-08-19T08:36:15;2.10;;;1.73;;
13973;SDS011;7060;43.770;4.008;2022-08-19T08:38:44;3.40;;;1.50;;
13973;SDS011;7060;43.770;4.008;2022-08-19T08:41:16;2.53;;;1.70;;
13973;SDS011;7060;43.770;4.008;2022-08-19T08:43:51;1.60;;;1.50;;
13973;SDS011;7060;43.770;4.008;2022-08-19T08:46:21;3.50;;;1.80;;
13973;SDS011;7060;43.770;4.008;2022-08-19T08:49:01;3.05;;;1.65;;
13973;SDS011;7060;43.770;4.008;2022-08-19T08:51:36;1.77;;;1.67;;
13973;SDS011;7060;43.770;4.008;2022-08-19T08:54:15;3.38;;;1.58;;
13973;SDS011;7060;43.770;4.008;2022-08-19T08:56:47;2.05;;;1.90;;
13973;SDS011;7060;43.770;4.008;2022-08-19T08:59:21;2.20;;;2.00;;
13973;SDS011;7060;43.770;4.008;2022-08-19T09:01:59;2.47;;;2.10;;
13973;SDS011;7060;43.770;4.008;2022-08-19T09:04:28;2.35;;;2.00;;
13973;SDS011;7060;43.770;4.008;2022-08-19T09:06:59;3.40;;;1.95;;
13973;SDS011;7060;43.770;4.008;2022-08-19T09:10:02;2.72;;;1.95;;
13973;SDS011;7060;43.770;4.008;2022-08-19T09:12:41;4.45;;;2.40;;
13973;SDS011;7060;43.770;4.008;2022-08-19T09:15:18;6.55;;;2.00;;
13973;SDS011;7060;43.770;4.008;2022-08-19T09:18:02;2.22;;;1.73;;
13973;SDS011;7060;43.770;4.008;2022-08-19T09:20:33;2.00;;;1.80;;
13973;SDS011;7060;43.770;4.008;2022-08-19T09:23:06;4.30;;;2.65;;
13973;SDS011;7060;43.770;4.008;2022-08-19T09:25:37;1.75;;;1.65;;
13973;SDS011;7060;43.770;4.008;2022-08-19T09:28:06;2.97;;;2.22;;
13973;SDS011;7060;43.770;4.008;2022-08-19T09:30:53;4.45;;;1.85;;
13973;SDS011;7060;43.770;4.008;2022-08-19T09:33:22;2.63;;;2.00;;
13973;SDS011;7060;43.770;4.008;2022-08-19T09:35:50;2.38;;;2.17;;
13973;SDS011;7060;43.770;4.008;2022-08-19T09:38:34;2.30;;;2.10;;
13973;SDS011;7060;43.770;4.008;2022-08-19T09:41:11;2.40;;;2.20;;
13973;SDS011;7060;43.770;4.008;2022-08-19T09:43:41;2.15;;;1.90;;
13973;SDS011;7060;43.770;4.008;2022-08-19T09:46:15;2.28;;;2.03;;
13973;SDS011;7060;43.770;4.008;2022-08-19T09:48:48;3.85;;;2.20;;
13973;SDS011;7060;43.770;4.008;2022-08-19T09:51:20;2.40;;;2.17;;
13973;SDS011;7060;43.770;4.008;2022-08-19T09:53:50;2.28;;;2.08;;
13973;SDS011;7060;43.770;4.008;2022-08-19T09:56:21;6.72;;;2.10;;
13973;SDS011;7060;43.770;4.008;2022-08-19T09:58:50;2.28;;;1.70;;
13973;SDS011;7060;43.770;4.008;2022-08-19T10:01:23;2.10;;;1.90;;
13973;SDS011;7060;43.770;4.008;2022-08-19T10:03:59;2.25;;;2.05;;
13973;SDS011;7060;43.770;4.008;2022-08-19T10:06:40;2.83;;;2.20;;
13973;SDS011;7060;43.770;4.008;2022-08-19T10:09:12;3.25;;;2.30;;
13973;SDS011;7060;43.770;4.008;2022-08-19T10:11:52;3.70;;;2.30;;
13973;SDS011;7060;43.770;4.008;2022-08-19T10:14:20;3.33;;;2.00;;
13973;SDS011;7060;43.770;4.008;2022-08-19T10:16:51;2.55;;;2.08;;
13973;SDS011;7060;43.770;4.008;2022-08-19T10:19:19;2.20;;;2.00;;
13973;SDS011;7060;43.770;4.008;2022-08-19T10:21:52;2.38;;;2.17;;
13973;SDS011;7060;43.770;4.008;2022-08-19T10:24:26;4.90;;;2.20;;
13973;SDS011;7060;43.770;4.008;2022-08-19T10:26:55;2.60;;;2.40;;
13973;SDS011;7060;43.770;4.008;2022-08-19T10:29:25;2.10;;;1.90;;
13973;SDS011;7060;43.770;4.008;2022-08-19T10:32:00;2.78;;;2.45;;
13973;SDS011;7060;43.770;4.008;2022-08-19T10:34:35;2.13;;;1.83;;
13973;SDS011;7060;43.770;4.008;2022-08-19T10:37:14;2.30;;;2.10;;
13973;SDS011;7060;43.770;4.008;2022-08-19T10:39:56;2.35;;;1.92;;
13973;SDS011;7060;43.770;4.008;2022-08-19T10:42:25;2.33;;;1.90;;
13973;SDS011;7060;43.770;4.008;2022-08-19T10:44:53;2.28;;;2.05;;
13973;SDS011;7060;43.770;4.008;2022-08-19T10:47:25;2.30;;;2.10;;
13973;SDS011;7060;43.770;4.008;2022-08-19T10:49:57;2.00;;;1.77;;
13973;SDS011;7060;43.770;4.008;2022-08-19T10:52:43;3.55;;;2.35;;
13973;SDS011;7060;43.770;4.008;2022-08-19T10:55:18;2.47;;;2.22;;
13973;SDS011;7060;43.770;4.008;2022-08-19T10:58:09;2.53;;;2.30;;
13973;SDS011;7060;43.770;4.008;2022-08-19T11:00:38;2.13;;;1.90;;
13973;SDS011;7060;43.770;4.008;2022-08-19T11:03:10;4.32;;;2.20;;
13973;SDS011;7060;43.770;4.008;2022-08-19T11:05:39;2.75;;;2.55;;
13973;SDS011;7060;43.770;4.008;2022-08-19T11:08:07;2.40;;;2.20;;
13973;SDS011;7060;43.770;4.008;2022-08-19T11:10:50;2.63;;;2.10;;
13973;SDS011;7060;43.770;4.008;2022-08-19T11:13:27;2.42;;;2.22;;
13973;SDS011;7060;43.770;4.008;2022-08-19T11:15:57;2.53;;;2.33;;
13973;SDS011;7060;43.770;4.008;2022-08-19T11:18:34;2.53;;;1.90;;
13973;SDS011;7060;43.770;4.008;2022-08-19T11:21:07;4.80;;;2.58;;
13973;SDS011;7060;43.770;4.008;2022-08-19T11:23:37;2.55;;;2.20;;
13973;SDS011;7060;43.770;4.008;2022-08-19T11:26:07;3.80;;;2.35;;
13973;SDS011;7060;43.770;4.008;2022-08-19T11:28:36;2.10;;;2.00;;
13973;SDS011;7060;43.770;4.008;2022-08-19T11:31:08;3.50;;;2.90;;
13973;SDS011;7060;43.770;4.008;2022-08-19T11:33:39;2.90;;;2.70;;
13973;SDS011;7060;43.770;4.008;2022-08-19T11:36:13;2.25;;;2.03;;
13973;SDS011;7060;43.770;4.008;2022-08-19T11:38:43;2.45;;;2.25;;
13973;SDS011;7060;43.770;4.008;2022-08-19T11:41:11;2.50;;;2.30;;
13973;SDS011;7060;43.770;4.008;2022-08-19T11:43:39;2.65;;;2.45;;
13973;SDS011;7060;43.770;4.008;2022-08-19T11:46:10;2.78;;;2.58;;
13973;SDS011;7060;43.770;4.008;2022-08-19T11:48:42;2.22;;;2.03;;
13973;SDS011;7060;43.770;4.008;2022-08-19T11:51:11;2.88;;;2.47;;
13973;SDS011;7060;43.770;4.008;2022-08-19T11:53:41;2.60;;;2.40;;
13973;SDS011;7060;43.770;4.008;2022-08-19T11:56:09;2.40;;;2.20;;
13973;SDS011;7060;43.770;4.008;2022-08-19T11:58:38;3.80;;;2.80;;
13973;SDS011;7060;43.770;4.008;2022-08-19T12:01:08;2.17;;;2.03;;
13973;SDS011;7060;43.770;4.008;2022-08-19T12:03:38;2.50;;;2.15;;
13973;SDS011;7060;43.770;4.008;2022-08-19T12:06:10;2.85;;;2.55;;
13973;SDS011;7060;43.770;4.008;2022-08-19T12:08:40;2.35;;;1.98;;
13973;SDS011;7060;43.770;4.008;2022-08-19T12:11:09;2.28;;;2.08;;
13973;SDS011;7060;43.770;4.008;2022-08-19T12:13:39;2.60;;;2.40;;
13973;SDS011;7060;43.770;4.008;2022-08-19T12:16:13;2.53;;;2.33;;
13973;SDS011;7060;43.770;4.008;2022-08-19T12:18:45;2.20;;;2.00;;
13973;SDS011;7060;43.770;4.008;2022-08-19T12:21:15;2.65;;;2.17;;
13973;SDS011;7060;43.770;4.008;2022-08-19T12:23:49;3.00;;;2.25;;
13973;SDS011;7060;43.770;4.008;2022-08-19T12:26:21;2.47;;;2.13;;
13973;SDS011;7060;43.770;4.008;2022-08-19T12:28:52;4.75;;;2.65;;
13973;SDS011;7060;43.770;4.008;2022-08-19T12:31:20;2.15;;;1.90;;
13973;SDS011;7060;43.770;4.008;2022-08-19T12:33:49;2.38;;;2.08;;
13973;SDS011;7060;43.770;4.008;2022-08-19T12:36:20;3.47;;;2.40;;
13973;SDS011;7060;43.770;4.008;2022-08-19T12:38:49;2.33;;;2.13;;
13973;SDS011;7060;43.770;4.008;2022-08-19T12:41:19;3.65;;;1.98;;
13973;SDS011;7060;43.770;4.008;2022-08-19T12:43:48;2.03;;;1.92;;
13973;SDS011;7060;43.770;4.008;2022-08-19T12:46:18;2.00;;;1.88;;
13973;SDS011;7060;43.770;4.008;2022-08-19T12:48:49;1.90;;;1.63;;
13973;SDS011;7060;43.770;4.008;2022-08-19T12:51:23;2.00;;;1.80;;
13973;SDS011;7060;43.770;4.008;2022-08-19T12:53:51;1.60;;;1.50;;
13973;SDS011;7060;43.770;4.008;2022-08-19T12:56:20;1.85;;;1.67;;
13973;SDS011;7060;43.770;4.008;2022-08-19T12:58:49;2.10;;;1.63;;
13973;SDS011;7060;43.770;4.008;2022-08-19T13:01:18;1.80;;;1.42;;
13973;SDS011;7060;43.770;4.008;2022-08-19T13:03:48;2.22;;;1.70;;
13973;SDS011;7060;43.770;4.008;2022-08-19T13:06:19;3.50;;;1.40;;
13973;SDS011;7060;43.770;4.008;2022-08-19T13:08:49;1.85;;;1.75;;
13973;SDS011;7060;43.770;4.008;2022-08-19T13:11:23;5.18;;;1.70;;
13973;SDS011;7060;43.770;4.008;2022-08-19T13:13:52;1.38;;;1.25;;
13973;SDS011;7060;43.770;4.008;2022-08-19T13:16:21;1.83;;;1.58;;
13973;SDS011;7060;43.770;4.008;2022-08-19T13:18:50;3.03;;;1.50;;
13973;SDS011;7060;43.770;4.008;2022-08-19T13:21:19;1.65;;;1.50;;
13973;SDS011;7060;43.770;4.008;2022-08-19T13:23:51;2.40;;;1.70;;
13973;SDS011;7060;43.770;4.008;2022-08-19T13:26:20;1.80;;;1.23;;
13973;SDS011;7060;43.770;4.008;2022-08-19T13:28:49;1.23;;;1.13;;
13973;SDS011;7060;43.770;4.008;2022-08-19T13:31:36;1.48;;;1.33;;
13973;SDS011;7060;43.770;4.008;2022-08-19T13:34:28;1.27;;;1.17;;
13973;SDS011;7060;43.770;4.008;2022-08-19T13:36:59;2.35;;;1.20;;
13973;SDS011;7060;43.770;4.008;2022-08-19T13:39:32;1.83;;;1.50;;
13973;SDS011;7060;43.770;4.008;2022-08-19T13:42:02;1.48;;;1.30;;
13973;SDS011;7060;43.770;4.008;2022-08-19T13:44:31;1.30;;;1.20;;
13973;SDS011;7060;43.770;4.008;2022-08-19T13:47:00;2.22;;;1.63;;
13973;SDS011;7060;43.770;4.008;2022-08-19T13:49:34;1.67;;;1.40;;
13973;SDS011;7060;43.770;4.008;2022-08-19T13:52:03;2.08;;;1.30;;
13973;SDS011;7060;43.770;4.008;2022-08-19T13:54:33;2.25;;;1.45;;
13973;SDS011;7060;43.770;4.008;2022-08-19T13:57:02;1.50;;;1.23;;
13973;SDS011;7060;43.770;4.008;2022-08-19T13:59:30;1.30;;;1.20;;
13973;SDS011;7060;43.770;4.008;2022-08-19T14:01:59;1.45;;;1.35;;
13973;SDS011;7060;43.770;4.008;2022-08-19T14:04:28;2.13;;;1.38;;
13973;SDS011;7060;43.770;4.008;2022-08-19T14:06:56;1.50;;;1.13;;
13973;SDS011;7060;43.770;4.008;2022-08-19T14:09:24;1.30;;;1.20;;
13973;SDS011;7060;43.770;4.008;2022-08-19T14:11:54;1.45;;;1.15;;
13973;SDS011;7060;43.770;4.008;2022-08-19T14:14:22;1.77;;;1.17;;
13973;SDS011;7060;43.770;4.008;2022-08-19T14:16:51;1.33;;;1.13;;
13973;SDS011;7060;43.770;4.008;2022-08-19T14:19:19;2.47;;;1.35;;
13973;SDS011;7060;43.770;4.008;2022-08-19T14:21:48;1.52;;;1.30;;
13973;SDS011;7060;43.770;4.008;2022-08-19T14:24:17;1.58;;;1.48;;
13973;SDS011;7060;43.770;4.008;2022-08-19T14:26:45;1.85;;;1.10;;
13973;SDS011;7060;43.770;4.008;2022-08-19T14:29:15;2.05;;;1.20;;
13973;SDS011;7060;43.770;4.008;2022-08-19T14:31:44;3.63;;;1.40;;
13973;SDS011;7060;43.770;4.008;2022-08-19T14:34:12;2.20;;;1.30;;
13973;SDS011;7060;43.770;4.008;2022-08-19T14:36:41;2.33;;;1.40;;
13973;SDS011;7060;43.770;4.008;2022-08-19T14:39:11;1.75;;;1.10;;
13973;SDS011;7060;43.770;4.008;2022-08-19T14:41:40;2.33;;;1.02;;
13973;SDS011;7060;43.770;4.008;2022-08-19T14:44:09;1.48;;;1.23;;
13973;SDS011;7060;43.770;4.008;2022-08-19T14:46:40;1.38;;;1.27;;
13973;SDS011;7060;43.770;4.008;2022-08-19T14:49:15;1.38;;;1.27;;
13973;SDS011;7060;43.770;4.008;2022-08-19T14:51:44;1.27;;;1.13;;
13973;SDS011;7060;43.770;4.008;2022-08-19T14:54:14;1.33;;;1.17;;
13973;SDS011;7060;43.770;4.008;2022-08-19T14:56:42;1.25;;;1.00;;
13973;SDS011;7060;43.770;4.008;2022-08-19T14:59:10;1.08;;;0.98;;
13973;SDS011;7060;43.770;4.008;2022-08-19T15:01:40;1.20;;;1.10;;
13973;SDS011;7060;43.770;4.008;2022-08-19T15:04:09;1.52;;;1.42;;
13973;SDS011;7060;43.770;4.008;2022-08-19T15:06:37;1.90;;;1.30;;
13973;SDS011;7060;43.770;4.008;2022-08-19T15:09:06;1.25;;;1.15;;
13973;SDS011;7060;43.770;4.008;2022-08-19T15:11:34;1.67;;;1.10;;
13973;SDS011;7060;43.770;4.008;2022-08-19T15:14:03;0.82;;;0.82;;
13973;SDS011;7060;43.770;4.008;2022-08-19T15:16:33;1.42;;;0.98;;
13973;SDS011;7060;43.770;4.008;2022-08-19T15:19:03;1.40;;;1.08;;
13973;SDS011;7060;43.770;4.008;2022-08-19T15:21:31;1.25;;;1.15;;
13973;SDS011;7060;43.770;4.008;2022-08-19T15:24:00;1.55;;;1.20;;
13973;SDS011;7060;43.770;4.008;2022-08-19T15:26:28;1.65;;;1.40;;
13973;SDS011;7060;43.770;4.008;2022-08-19T15:28:59;1.45;;;1.00;;